Solidarnosc (vanuatu) — YJZC9 — position and weather

sailwx.info

Track history (hours):
 
Tides and Currents Weather Stations Pressure Air Temp Water Temp Dewpoint Dewpoint Depression Visibility Wind Speed Wind Dir Waves Ship Positions

Solidarnosc (vanuatu)

Last reported at 2014-Dec-21 18:13 UTC. Time now 2014-Dec-23 02:15 UTC.
Position N 35°50' E 032°54'.

Length 229 m; beam 32 m.

Type: Ship. MMSI: 576005000.

Date/timePositionNaut miles runAvg speedWind from/ knotsBaromVisibWave heightAir tempDewpointWater temp
2014-Dec-21 18:13N 35°50' E 032°54'29712.8
2014-Dec-20 19:05N 36°27' E 026°49'814.0
2014-Dec-20 18:30N 36°33' E 026°42'1413.4
2014-Dec-20 17:27N 36°43' E 026°31'1213.7
2014-Dec-20 16:33N 36°52' E 026°20'1313.4
2014-Dec-20 15:33N 37°03' E 026°09'1313.4
2014-Dec-20 14:33N 37°15' E 026°03'1413.8
2014-Dec-20 13:33N 37°28' E 025°56'1414.0
2014-Dec-20 12:33N 37°41' E 025°52'1413.5
2014-Dec-20 11:29N 37°56' E 025°49'  
Track history (hours):
 
Tides and Currents Weather Stations Pressure Air Temp Water Temp Dewpoint Dewpoint Depression Visibility Wind Speed Wind Dir Waves Ship Positions

Solidarnosc (vanuatu)

Last reported at 2014-Dec-21 18:13 UTC. Time now 2014-Dec-23 02:15 UTC.
Position N 35°50' E 032°54'.

Length 229 m; beam 32 m.

Type: Ship. MMSI: 576005000.

Date/timePositionNaut miles runAvg speedWind from/ knotsBaromVisibWave heightAir tempDewpointWater temp
2014-Dec-21 18:13N 35°50' E 032°54'29712.8
2014-Dec-20 19:05N 36°27' E 026°49'814.0
2014-Dec-20 18:30N 36°33' E 026°42'1413.4
2014-Dec-20 17:27N 36°43' E 026°31'1213.7
2014-Dec-20 16:33N 36°52' E 026°20'1313.4
2014-Dec-20 15:33N 37°03' E 026°09'1313.4
2014-Dec-20 14:33N 37°15' E 026°03'1413.8
2014-Dec-20 13:33N 37°28' E 025°56'1414.0
2014-Dec-20 12:33N 37°41' E 025°52'1413.5
2014-Dec-20 11:29N 37°56' E 025°49'  

Dump ship's entire track history